createdAt,value
2024-03-15T00:01:18.109Z,21.45
2024-03-15T00:03:44.920Z,17.30
2024-03-15T00:06:14.876Z,15.93
2024-03-15T00:08:41.624Z,19.70
2024-03-15T00:11:10.380Z,18.27
2024-03-15T00:13:37.434Z,17.30
2024-03-15T00:16:05.325Z,20.00
2024-03-15T00:18:35.212Z,16.88
2024-03-15T00:21:02.292Z,17.50
2024-03-15T00:23:29.058Z,17.13
2024-03-15T00:25:56.516Z,17.63
2024-03-15T00:28:23.260Z,13.20
2024-03-15T00:30:51.121Z,17.33
2024-03-15T00:33:18.076Z,16.33
2024-03-15T00:35:44.917Z,17.05
2024-03-15T00:38:12.014Z,15.40
2024-03-15T00:40:38.748Z,15.60
2024-03-15T00:43:05.440Z,12.73
2024-03-15T00:45:32.157Z,21.10
2024-03-15T00:48:03.170Z,13.52
2024-03-15T00:50:30.913Z,15.13
2024-03-15T00:52:58.687Z,16.52
2024-03-15T00:55:28.987Z,13.98
2024-03-15T00:57:55.829Z,13.48
2024-03-15T01:00:22.992Z,14.95
2024-03-15T01:02:50.073Z,14.57
2024-03-15T01:05:16.886Z,17.60
2024-03-15T01:07:43.744Z,19.90
2024-03-15T01:10:10.544Z,17.83
2024-03-15T01:12:37.278Z,16.25
2024-03-15T01:15:04.340Z,18.58
2024-03-15T01:17:31.142Z,23.05
2024-03-15T01:19:58.832Z,19.58
2024-03-15T01:22:25.624Z,17.50
2024-03-15T01:24:53.489Z,20.25
2024-03-15T01:27:20.289Z,17.88
2024-03-15T01:29:48.041Z,22.27
2024-03-15T01:32:14.959Z,16.45
2024-03-15T01:34:41.649Z,23.88
2024-03-15T01:37:08.433Z,29.10
2024-03-15T01:39:35.105Z,31.75
2024-03-15T01:42:02.417Z,23.10
2024-03-15T01:44:53.006Z,18.35
2024-03-15T01:47:27.523Z,21.02
2024-03-15T01:49:55.912Z,20.60
2024-03-15T01:52:23.563Z,18.10
2024-03-15T01:54:50.331Z,24.05
2024-03-15T01:57:19.112Z,22.45
2024-03-15T01:59:48.968Z,22.35
2024-03-15T02:04:43.176Z,21.35
2024-03-15T02:07:09.843Z,22.42
2024-03-15T02:09:36.703Z,21.73
2024-03-15T02:12:03.535Z,22.50
2024-03-15T02:14:30.234Z,28.88
2024-03-15T02:16:57.781Z,26.33
2024-03-15T02:19:25.946Z,30.13
2024-03-15T02:21:52.734Z,23.30
2024-03-15T02:24:19.559Z,26.98
2024-03-15T02:26:46.315Z,27.63
2024-03-15T02:29:17.406Z,25.13
2024-03-15T02:31:47.807Z,27.50
2024-03-15T02:34:17.385Z,26.40
2024-03-15T02:36:44.834Z,25.80
2024-03-15T02:39:17.511Z,24.73
2024-03-15T02:41:45.236Z,22.30
2024-03-15T02:44:12.627Z,24.42
2024-03-15T02:46:39.370Z,23.70
2024-03-15T02:49:06.067Z,21.55
2024-03-15T02:51:32.825Z,20.92
2024-03-15T02:53:59.556Z,25.55
2024-03-15T02:56:26.388Z,23.27
2024-03-15T02:58:53.116Z,23.40
2024-03-15T03:01:21.336Z,19.92
2024-03-15T03:03:48.164Z,21.67
2024-03-15T03:06:15.046Z,19.23
2024-03-15T03:08:41.758Z,21.42
2024-03-15T03:11:08.582Z,21.33
2024-03-15T03:13:35.329Z,17.20
2024-03-15T03:16:02.374Z,20.90
2024-03-15T03:18:29.701Z,18.80
2024-03-15T03:20:56.940Z,16.55
2024-03-15T03:23:24.201Z,17.30
2024-03-15T03:25:52.986Z,23.77
2024-03-15T03:28:20.066Z,17.20
2024-03-15T03:30:47.704Z,18.95
2024-03-15T03:33:14.638Z,19.10
2024-03-15T03:35:41.600Z,16.48
2024-03-15T03:38:08.303Z,17.30
2024-03-15T03:40:34.964Z,18.50
2024-03-15T03:43:04.490Z,16.90
2024-03-15T03:45:31.631Z,17.25
2024-03-15T03:47:59.172Z,20.73
2024-03-15T03:50:25.949Z,15.20
2024-03-15T03:52:54.057Z,14.10
2024-03-15T03:55:20.880Z,15.13
2024-03-15T03:57:48.335Z,16.35
2024-03-15T04:00:15.510Z,13.90
2024-03-15T04:02:47.019Z,15.75
2024-03-15T04:05:15.946Z,15.70
2024-03-15T04:07:48.949Z,13.77
2024-03-15T04:10:15.968Z,15.00
2024-03-15T04:12:47.323Z,15.02
2024-03-15T04:15:25.372Z,13.30
2024-03-15T04:18:00.960Z,15.32
2024-03-15T04:20:28.643Z,12.38
2024-03-15T04:22:57.462Z,15.02
2024-03-15T04:25:25.108Z,16.15
2024-03-15T04:27:54.648Z,14.70
2024-03-15T04:30:24.050Z,15.63
2024-03-15T04:32:51.768Z,15.60
2024-03-15T04:35:19.282Z,16.38
2024-03-15T04:37:46.890Z,15.68
2024-03-15T04:40:15.775Z,16.58
2024-03-15T04:42:43.140Z,15.38
2024-03-15T04:45:11.263Z,17.23
2024-03-15T04:47:45.548Z,16.30
2024-03-15T04:50:12.581Z,18.88
2024-03-15T04:52:42.392Z,17.55
2024-03-15T04:57:40.406Z,17.88
2024-03-15T05:00:19.673Z,18.30
2024-03-15T05:02:49.552Z,18.35
2024-03-15T05:05:17.624Z,17.33
2024-03-15T05:07:45.329Z,17.77
2024-03-15T05:10:19.404Z,19.58
2024-03-15T05:12:47.143Z,19.90
2024-03-15T05:15:14.856Z,17.63
2024-03-15T05:17:42.586Z,18.85
2024-03-15T05:20:16.171Z,22.35
2024-03-15T05:22:46.383Z,17.60
2024-03-15T05:25:16.668Z,16.48
2024-03-15T05:27:44.383Z,21.20
2024-03-15T05:30:13.213Z,19.95
2024-03-15T05:32:40.631Z,17.93
2024-03-15T05:35:07.731Z,21.83
2024-03-15T05:37:34.443Z,22.10
2024-03-15T05:40:01.220Z,23.58
2024-03-15T05:42:29.338Z,24.00
2024-03-15T05:44:56.125Z,27.75
2024-03-15T05:47:26.090Z,23.27
2024-03-15T05:49:56.040Z,25.27
2024-03-15T05:52:23.189Z,26.98
2024-03-15T05:54:50.055Z,29.77
2024-03-15T05:57:16.797Z,27.02
2024-03-15T05:59:43.578Z,26.98
2024-03-15T06:02:10.553Z,24.08
2024-03-15T06:04:37.261Z,24.25
2024-03-15T06:07:04.151Z,24.60
2024-03-15T06:09:31.224Z,24.15
2024-03-15T06:11:58.662Z,29.60
2024-03-15T06:14:26.545Z,28.38
2024-03-15T06:16:53.472Z,23.55
2024-03-15T06:19:20.785Z,26.38
2024-03-15T06:21:49.765Z,24.13
2024-03-15T06:24:20.738Z,25.27
2024-03-15T06:26:57.074Z,25.90
2024-03-15T06:29:28.549Z,25.02
2024-03-15T06:31:55.488Z,22.23
2024-03-15T06:34:23.562Z,25.83
2024-03-15T06:36:55.417Z,25.33
2024-03-15T06:39:37.411Z,27.08
2024-03-15T06:42:22.037Z,22.88
2024-03-15T06:44:52.231Z,23.17
2024-03-15T06:47:19.478Z,21.63
2024-03-15T06:49:49.914Z,24.58
2024-03-15T06:52:35.119Z,27.25
2024-03-15T06:55:06.096Z,24.33
2024-03-15T06:57:34.411Z,23.95
2024-03-15T07:00:15.696Z,27.85
2024-03-15T07:02:44.451Z,26.15
2024-03-15T07:05:15.645Z,27.08
2024-03-15T07:07:43.123Z,27.60
2024-03-15T07:10:15.472Z,27.98
2024-03-15T07:12:43.085Z,28.00
2024-03-15T07:15:10.869Z,30.48
2024-03-15T07:17:38.583Z,28.88
2024-03-15T07:20:09.440Z,30.73
2024-03-15T07:25:07.822Z,28.33
2024-03-15T07:27:35.190Z,24.42
2024-03-15T07:30:02.301Z,26.85
2024-03-15T07:32:32.019Z,28.98
2024-03-15T07:37:25.599Z,21.67
2024-03-15T07:39:56.416Z,23.38
2024-03-15T07:42:23.795Z,24.70
2024-03-15T07:44:50.954Z,21.13
2024-03-15T07:47:18.989Z,23.35
2024-03-15T07:49:46.236Z,23.02
2024-03-15T07:52:13.673Z,27.27
2024-03-15T07:54:41.363Z,26.38
2024-03-15T07:57:10.360Z,29.25
2024-03-15T07:59:37.415Z,25.63
2024-03-15T08:02:04.954Z,25.10
2024-03-15T08:04:34.079Z,29.83
2024-03-15T08:07:01.989Z,33.00
2024-03-15T08:09:28.806Z,27.95
2024-03-15T08:11:55.669Z,30.70
2024-03-15T08:14:22.904Z,29.98
2024-03-15T08:16:49.911Z,26.48
2024-03-15T08:19:16.760Z,29.67
2024-03-15T08:21:45.120Z,36.08
2024-03-15T08:24:12.095Z,30.40
2024-03-15T08:26:41.051Z,29.20
2024-03-15T08:29:10.354Z,29.97
2024-03-15T08:31:37.429Z,27.98
2024-03-15T08:34:05.459Z,28.48
2024-03-15T08:36:38.583Z,31.38
2024-03-15T08:39:06.617Z,32.70
2024-03-15T08:41:33.426Z,26.67
2024-03-15T08:44:00.400Z,33.38
2024-03-15T08:46:29.390Z,29.73
2024-03-15T08:48:56.563Z,33.78
2024-03-15T08:51:24.544Z,29.88
2024-03-15T08:53:51.865Z,29.05
2024-03-15T08:56:20.068Z,29.77
2024-03-15T08:58:47.996Z,28.27
2024-03-15T09:01:14.843Z,31.02
2024-03-15T09:03:42.842Z,27.77
2024-03-15T09:06:11.268Z,26.63
2024-03-15T09:08:38.082Z,23.98
2024-03-15T09:11:04.856Z,26.73
2024-03-15T09:13:34.249Z,28.38
2024-03-15T09:18:30.583Z,22.53
2024-03-15T09:20:58.198Z,22.85
2024-03-15T09:23:25.613Z,24.75
2024-03-15T09:25:52.592Z,26.30
2024-03-15T09:28:20.357Z,28.35
2024-03-15T09:30:58.407Z,27.35
2024-03-15T09:33:36.158Z,24.48
2024-03-15T09:36:06.403Z,26.80
2024-03-15T09:38:34.163Z,23.80
2024-03-15T09:41:01.205Z,22.65
2024-03-15T09:43:28.267Z,20.65
2024-03-15T09:45:57.910Z,28.15
2024-03-15T09:48:25.471Z,27.65
2024-03-15T09:50:57.872Z,22.98
2024-03-15T09:53:25.632Z,21.02
2024-03-15T09:55:54.784Z,22.92
2024-03-15T09:58:24.793Z,27.90
2024-03-15T10:00:52.220Z,20.50
2024-03-15T10:03:19.681Z,22.50
2024-03-15T10:05:46.765Z,19.92
2024-03-15T10:08:17.315Z,19.58
2024-03-15T10:10:45.925Z,19.60
2024-03-15T10:13:15.679Z,21.97
2024-03-15T10:15:47.327Z,22.10
2024-03-15T10:18:14.620Z,22.95
2024-03-15T10:20:41.848Z,21.35
2024-03-15T10:23:11.742Z,23.80
2024-03-15T10:25:39.159Z,22.48
2024-03-15T10:28:12.390Z,24.55
2024-03-15T10:30:41.251Z,22.38
2024-03-15T10:33:09.486Z,22.65
2024-03-15T10:35:36.956Z,22.25
2024-03-15T10:38:05.456Z,21.17
2024-03-15T10:40:35.480Z,23.30
2024-03-15T10:43:03.412Z,29.90
2024-03-15T10:45:30.407Z,25.70
2024-03-15T10:47:59.045Z,21.13
2024-03-15T10:50:29.186Z,25.10
2024-03-15T10:52:58.125Z,21.88
2024-03-15T10:55:27.506Z,23.95
2024-03-15T10:58:06.456Z,23.55
2024-03-15T11:00:34.113Z,21.38
2024-03-15T11:03:20.457Z,22.35
2024-03-15T11:05:48.648Z,20.88
2024-03-15T11:08:17.915Z,23.48
2024-03-15T11:10:56.243Z,21.05
2024-03-15T11:13:27.136Z,23.25
2024-03-15T11:15:54.404Z,20.65
2024-03-15T11:18:21.598Z,20.98
2024-03-15T11:20:57.072Z,21.17
2024-03-15T11:23:26.196Z,20.88
2024-03-15T11:26:08.405Z,18.98
2024-03-15T11:28:39.438Z,19.88
2024-03-15T11:31:17.790Z,23.25
2024-03-15T11:33:44.896Z,26.88
2024-03-15T11:36:14.711Z,22.02
2024-03-15T11:38:46.738Z,19.23
2024-03-15T11:41:14.320Z,20.02
2024-03-15T11:43:41.270Z,20.00
2024-03-15T11:46:09.733Z,18.08
2024-03-15T11:48:36.952Z,18.10
2024-03-15T11:51:04.057Z,18.85
2024-03-15T11:53:35.127Z,20.05
2024-03-15T11:56:03.594Z,20.95
2024-03-15T11:58:30.753Z,18.67
2024-03-15T12:00:57.597Z,18.45
2024-03-15T12:03:26.649Z,19.45
2024-03-15T12:05:55.912Z,17.92
2024-03-15T12:08:26.000Z,20.13
2024-03-15T12:10:54.334Z,20.20
2024-03-15T12:13:26.000Z,18.80
2024-03-15T12:15:54.458Z,20.55
2024-03-15T12:18:23.417Z,19.45
2024-03-15T12:20:51.951Z,19.13
2024-03-15T12:23:23.192Z,19.33
2024-03-15T12:25:50.899Z,19.80
2024-03-15T12:28:19.270Z,19.08
2024-03-15T12:30:47.535Z,19.95
2024-03-15T12:33:14.751Z,21.00
2024-03-15T12:35:42.862Z,19.42
2024-03-15T12:38:12.919Z,22.88
2024-03-15T12:40:45.743Z,21.13
2024-03-15T12:43:13.344Z,22.60
2024-03-15T12:45:42.561Z,23.05
2024-03-15T12:48:13.782Z,18.80
2024-03-15T12:50:41.874Z,23.13
2024-03-15T12:53:17.879Z,21.85
2024-03-15T12:55:44.604Z,19.35
2024-03-15T12:58:11.889Z,21.27
2024-03-15T13:00:39.080Z,20.55
2024-03-15T13:03:06.968Z,21.48
2024-03-15T13:05:35.322Z,18.55
2024-03-15T13:08:02.666Z,20.38
2024-03-15T13:10:30.168Z,19.80
2024-03-15T13:12:57.654Z,18.90
2024-03-15T13:15:24.942Z,20.58
2024-03-15T13:17:54.217Z,20.17
2024-03-15T13:20:23.318Z,21.73
2024-03-15T13:22:57.615Z,15.35
2024-03-15T13:25:34.968Z,19.17
2024-03-15T13:28:09.143Z,18.85
2024-03-15T13:30:38.059Z,16.15
2024-03-15T13:33:07.972Z,17.63
2024-03-15T13:35:38.213Z,17.33
2024-03-15T13:38:05.290Z,20.13
2024-03-15T13:40:32.018Z,16.67
2024-03-15T13:42:58.847Z,17.60
2024-03-15T13:45:27.258Z,18.25
2024-03-15T13:47:56.007Z,17.75
2024-03-15T13:50:23.443Z,20.40
2024-03-15T13:52:56.101Z,18.52
2024-03-15T13:55:23.980Z,17.63
2024-03-15T13:57:51.083Z,17.23
2024-03-15T14:00:34.313Z,17.52
2024-03-15T14:03:03.708Z,21.00
2024-03-15T14:05:40.175Z,17.08
2024-03-15T14:08:11.220Z,18.88
2024-03-15T14:10:42.115Z,18.38
2024-03-15T14:13:10.109Z,19.40
2024-03-15T14:15:40.530Z,19.35
2024-03-15T14:18:10.056Z,21.50
2024-03-15T14:20:45.769Z,20.85
2024-03-15T14:23:13.781Z,19.40
2024-03-15T14:25:41.080Z,20.70
2024-03-15T14:28:08.686Z,17.83
2024-03-15T14:30:37.587Z,18.38
2024-03-15T14:33:08.743Z,22.70
2024-03-15T14:35:36.123Z,21.65
2024-03-15T14:38:09.540Z,21.25
2024-03-15T14:40:39.298Z,22.23
2024-03-15T14:43:08.837Z,26.50
2024-03-15T14:48:10.343Z,19.25
2024-03-15T14:50:41.305Z,20.40
2024-03-15T14:53:08.795Z,20.80
2024-03-15T14:55:36.658Z,22.00
2024-03-15T14:58:05.602Z,21.98
2024-03-15T15:00:33.454Z,23.52
2024-03-15T15:03:01.137Z,22.50
2024-03-15T15:05:28.369Z,21.65
2024-03-15T15:08:00.519Z,19.52
2024-03-15T15:10:29.197Z,19.98
2024-03-15T15:12:59.476Z,21.40
2024-03-15T15:15:28.313Z,20.52
2024-03-15T15:17:55.980Z,21.37
2024-03-15T15:20:23.005Z,24.02
2024-03-15T15:22:51.464Z,23.55
2024-03-15T15:25:21.866Z,22.58
2024-03-15T15:27:50.653Z,21.55
2024-03-15T15:30:19.278Z,22.70
2024-03-15T15:32:48.501Z,23.02
2024-03-15T15:35:16.983Z,21.35
2024-03-15T15:37:44.648Z,24.27
2024-03-15T15:40:19.386Z,20.33
2024-03-15T15:42:47.883Z,23.27
2024-03-15T15:45:16.022Z,22.88
2024-03-15T15:47:43.442Z,23.13
2024-03-15T15:50:20.060Z,19.85
2024-03-15T15:52:50.367Z,21.02
2024-03-15T15:55:18.148Z,22.85
2024-03-15T15:57:45.243Z,21.85
2024-03-15T16:00:15.770Z,23.20
2024-03-15T16:02:43.459Z,20.67
2024-03-15T16:05:11.024Z,19.45
2024-03-15T16:07:38.248Z,21.50
2024-03-15T16:10:05.368Z,20.67
2024-03-15T16:12:32.655Z,23.15
2024-03-15T16:15:02.356Z,22.98
2024-03-15T16:17:30.141Z,22.40
2024-03-15T16:19:56.911Z,21.08
2024-03-15T16:22:23.772Z,23.40
2024-03-15T16:24:50.614Z,21.58
2024-03-15T16:27:17.374Z,22.20
2024-03-15T16:29:44.123Z,18.65
2024-03-15T16:32:10.904Z,25.67
2024-03-15T16:34:38.140Z,21.83
2024-03-15T16:37:08.323Z,23.50
2024-03-15T16:39:35.361Z,22.20
2024-03-15T16:42:02.072Z,22.45
2024-03-15T16:44:28.837Z,30.23
2024-03-15T16:46:56.221Z,29.77
2024-03-15T16:49:23.024Z,23.50
2024-03-15T16:51:52.019Z,25.27
2024-03-15T16:54:19.286Z,30.35
2024-03-15T16:56:46.527Z,27.85
2024-03-15T16:59:13.476Z,26.60
2024-03-15T17:01:40.823Z,35.28
2024-03-15T17:04:11.591Z,31.88
2024-03-15T17:06:42.345Z,33.65
2024-03-15T17:09:14.407Z,31.73
2024-03-15T17:11:41.753Z,33.90
2024-03-15T17:14:08.703Z,35.10
2024-03-15T17:16:35.460Z,30.35
2024-03-15T17:19:04.264Z,31.73
2024-03-15T17:21:31.473Z,32.40
2024-03-15T17:23:58.248Z,26.40
2024-03-15T17:26:24.956Z,27.20
2024-03-15T17:28:51.715Z,24.52
2024-03-15T17:31:18.425Z,25.30
2024-03-15T17:33:45.876Z,26.40
2024-03-15T17:36:12.953Z,27.88
2024-03-15T17:38:40.441Z,31.25
2024-03-15T17:41:07.289Z,27.23
2024-03-15T17:43:34.267Z,27.38
2024-03-15T17:46:01.015Z,27.48
2024-03-15T17:48:28.603Z,26.27
2024-03-15T17:50:55.757Z,31.88
2024-03-15T17:53:22.541Z,30.60
2024-03-15T17:55:49.195Z,31.15
2024-03-15T17:58:16.006Z,29.73
2024-03-15T18:00:42.847Z,32.78
2024-03-15T18:03:09.825Z,35.53
2024-03-15T18:05:37.792Z,37.15
2024-03-15T18:08:05.266Z,34.13
2024-03-15T18:10:32.108Z,30.27
2024-03-15T18:12:58.933Z,33.13
2024-03-15T18:15:26.115Z,32.60
2024-03-15T18:17:53.089Z,41.85
2024-03-15T18:20:20.084Z,44.40
2024-03-15T18:22:46.872Z,41.25
2024-03-15T18:25:13.995Z,46.30
2024-03-15T18:27:40.855Z,40.05
2024-03-15T18:30:09.898Z,35.33
2024-03-15T18:32:37.785Z,33.25
2024-03-15T18:35:05.271Z,32.58
2024-03-15T18:37:32.145Z,31.55
2024-03-15T18:39:59.295Z,37.03
2024-03-15T18:42:26.883Z,40.22
2024-03-15T18:44:53.742Z,30.77
2024-03-15T18:47:20.404Z,32.20
2024-03-15T18:49:48.641Z,37.03
2024-03-15T18:52:16.800Z,32.50
2024-03-15T18:54:45.071Z,35.65
2024-03-15T18:57:14.302Z,33.40
2024-03-15T18:59:42.880Z,32.05
2024-03-15T19:02:09.681Z,34.28
2024-03-15T19:04:36.555Z,46.03
2024-03-15T19:07:03.412Z,38.83
2024-03-15T19:09:30.257Z,40.75
2024-03-15T19:11:56.989Z,34.92
2024-03-15T19:14:25.582Z,46.42
2024-03-15T19:16:54.153Z,68.38
2024-03-15T19:19:21.225Z,53.47
2024-03-15T19:21:48.013Z,46.05
2024-03-15T19:24:14.688Z,44.15
2024-03-15T19:26:41.369Z,37.95
2024-03-15T19:29:08.791Z,41.50
2024-03-15T19:31:35.813Z,44.67
2024-03-15T19:34:02.587Z,45.45
2024-03-15T19:36:29.338Z,45.33
2024-03-15T19:38:56.714Z,50.35
2024-03-15T19:41:23.740Z,46.50
2024-03-15T19:43:50.682Z,54.65
2024-03-15T19:46:17.346Z,58.95
2024-03-15T19:48:44.999Z,55.35
2024-03-15T19:51:11.768Z,58.08
2024-03-15T19:53:38.514Z,48.40
2024-03-15T19:56:05.972Z,55.47
2024-03-15T19:58:32.679Z,54.50
2024-03-15T20:00:59.896Z,46.53
2024-03-15T20:03:26.828Z,33.22
2024-03-15T20:05:56.707Z,28.20
2024-03-15T20:10:52.592Z,19.88
2024-03-15T20:13:19.454Z,28.67
2024-03-15T20:15:46.335Z,30.58
2024-03-15T20:18:13.419Z,32.75
2024-03-15T20:20:40.990Z,31.95
2024-03-15T20:23:08.092Z,32.97
2024-03-15T20:25:34.888Z,31.88
2024-03-15T20:28:04.597Z,30.88
2024-03-15T20:30:32.571Z,29.23
2024-03-15T20:33:00.580Z,31.52
2024-03-15T20:35:29.397Z,26.80
2024-03-15T20:37:57.829Z,27.50
2024-03-15T20:40:28.187Z,23.13
2024-03-15T20:42:56.316Z,23.27
2024-03-15T20:45:23.956Z,22.35
2024-03-15T20:47:51.859Z,27.20
2024-03-15T20:50:21.088Z,23.95
2024-03-15T20:52:48.397Z,23.38
2024-03-15T20:55:19.961Z,24.17
2024-03-15T20:57:50.937Z,25.10
2024-03-15T21:00:22.761Z,22.80
2024-03-15T21:02:53.282Z,24.70
2024-03-15T21:05:20.378Z,27.70
2024-03-15T21:07:47.130Z,24.27
2024-03-15T21:10:13.962Z,22.95
2024-03-15T21:12:40.736Z,24.33
2024-03-15T21:15:09.499Z,23.02
2024-03-15T21:17:38.258Z,25.33
2024-03-15T21:20:16.854Z,24.90
2024-03-15T21:22:44.186Z,23.10
2024-03-15T21:25:11.804Z,27.77
2024-03-15T21:27:39.438Z,21.00
2024-03-15T21:30:07.191Z,22.75
2024-03-15T21:32:34.484Z,23.92
2024-03-15T21:35:01.755Z,24.35
2024-03-15T21:37:28.521Z,27.70
2024-03-15T21:39:55.557Z,23.08
2024-03-15T21:42:24.036Z,23.13
2024-03-15T21:44:52.182Z,23.83
2024-03-15T21:47:20.419Z,22.88
2024-03-15T21:49:51.155Z,20.38
2024-03-15T21:52:18.953Z,22.48
2024-03-15T21:54:48.917Z,22.77
2024-03-15T21:57:15.806Z,22.70
2024-03-15T21:59:46.181Z,27.73
2024-03-15T22:02:14.524Z,26.60
2024-03-15T22:04:41.574Z,23.92
2024-03-15T22:07:09.321Z,29.65
2024-03-15T22:09:36.509Z,28.35
2024-03-15T22:12:03.796Z,25.65
2024-03-15T22:14:30.765Z,28.58
2024-03-15T22:16:57.542Z,26.73
2024-03-15T22:19:24.287Z,27.17
2024-03-15T22:21:51.251Z,24.15
2024-03-15T22:24:18.237Z,22.95
2024-03-15T22:26:44.966Z,27.90
2024-03-15T22:29:12.793Z,25.67
2024-03-15T22:31:40.013Z,28.75
2024-03-15T22:34:06.770Z,26.35
2024-03-15T22:36:33.668Z,27.90
2024-03-15T22:39:00.697Z,26.83
2024-03-15T22:41:28.921Z,31.90
2024-03-15T22:43:57.343Z,25.95
2024-03-15T22:46:24.092Z,26.55
2024-03-15T22:48:50.965Z,24.67
2024-03-15T22:51:17.902Z,24.45
2024-03-15T22:53:44.593Z,24.15
2024-03-15T22:56:11.249Z,24.35
2024-03-15T22:58:38.512Z,25.88
2024-03-15T23:01:06.703Z,26.58
2024-03-15T23:03:36.016Z,25.38
2024-03-15T23:06:06.379Z,23.33
2024-03-15T23:08:33.142Z,30.25
2024-03-15T23:11:00.236Z,22.15
2024-03-15T23:13:27.299Z,27.50
2024-03-15T23:15:55.835Z,26.23
2024-03-15T23:18:22.855Z,29.00
2024-03-15T23:20:51.018Z,24.27
2024-03-15T23:23:17.812Z,22.95
2024-03-15T23:25:45.971Z,25.05
2024-03-15T23:28:13.353Z,23.02
2024-03-15T23:30:40.799Z,24.30
2024-03-15T23:33:07.938Z,20.55
2024-03-15T23:35:34.773Z,25.83
2024-03-15T23:38:01.698Z,24.02
2024-03-15T23:40:28.500Z,20.88
2024-03-15T23:42:55.307Z,25.85
2024-03-15T23:45:22.063Z,23.08
2024-03-15T23:47:48.988Z,21.83
2024-03-15T23:50:15.912Z,22.50
2024-03-15T23:52:42.615Z,23.48
2024-03-15T23:55:09.727Z,23.35
2024-03-15T23:57:37.074Z,24.83
